createdAt,value
2023-03-13T00:01:09.972Z,86.75
2023-03-13T00:03:36.844Z,87.25
2023-03-13T00:06:03.978Z,87.19
2023-03-13T00:08:31.001Z,86.79
2023-03-13T00:10:58.169Z,86.80
2023-03-13T00:13:25.183Z,86.93
2023-03-13T00:16:00.261Z,87.06
2023-03-13T00:18:27.037Z,86.64
2023-03-13T00:21:02.069Z,87.09
2023-03-13T00:23:29.668Z,86.95
2023-03-13T00:26:01.779Z,86.90
2023-03-13T00:28:32.394Z,86.82
2023-03-13T00:31:26.859Z,86.74
2023-03-13T00:33:57.494Z,86.86
2023-03-13T00:36:27.425Z,86.37
2023-03-13T00:38:55.681Z,86.44
2023-03-13T00:41:25.195Z,86.93
2023-03-13T00:43:53.356Z,87.02
2023-03-13T00:46:23.643Z,86.87
2023-03-13T00:48:51.325Z,86.89
2023-03-13T00:51:19.679Z,86.81
2023-03-13T00:53:48.795Z,87.04
2023-03-13T00:56:18.464Z,86.93
2023-03-13T00:58:47.148Z,87.19
2023-03-13T01:01:24.809Z,87.45
2023-03-13T01:04:00.524Z,87.70
2023-03-13T01:06:30.205Z,88.03
2023-03-13T01:08:59.270Z,88.60
2023-03-13T01:11:29.747Z,88.49
2023-03-13T01:13:59.820Z,88.89
2023-03-13T01:16:27.905Z,88.66
2023-03-13T01:18:59.097Z,88.32
2023-03-13T01:21:26.352Z,88.37
2023-03-13T01:23:54.723Z,88.25
2023-03-13T01:26:22.552Z,88.26
2023-03-13T01:28:49.725Z,88.57
2023-03-13T01:31:25.231Z,88.54
2023-03-13T01:33:55.889Z,88.52
2023-03-13T01:36:23.352Z,88.59
2023-03-13T01:38:52.340Z,88.37
2023-03-13T01:41:21.029Z,88.59
2023-03-13T01:43:48.517Z,88.70
2023-03-13T01:46:25.271Z,88.37
2023-03-13T01:49:27.590Z,88.60
2023-03-13T01:52:18.634Z,89.01
2023-03-13T01:54:59.469Z,89.06
2023-03-13T01:57:40.191Z,88.82
2023-03-13T02:00:16.861Z,89.08
2023-03-13T02:02:49.015Z,88.70
2023-03-13T02:05:17.408Z,88.84
2023-03-13T02:07:50.801Z,88.98
2023-03-13T02:10:19.144Z,89.24
2023-03-13T02:12:46.067Z,89.38
2023-03-13T02:15:19.218Z,88.86
2023-03-13T02:17:48.216Z,89.20
2023-03-13T02:20:18.639Z,89.46
2023-03-13T02:22:48.972Z,89.37
2023-03-13T02:25:24.186Z,89.66
2023-03-13T02:28:34.049Z,89.93
2023-03-13T02:31:03.811Z,90.00
2023-03-13T02:33:35.586Z,89.87
2023-03-13T02:36:03.999Z,89.93
2023-03-13T02:38:35.057Z,89.88
2023-03-13T02:41:04.717Z,90.01
2023-03-13T02:43:36.899Z,90.15
2023-03-13T02:46:09.572Z,89.89
2023-03-13T02:48:43.368Z,89.84
2023-03-13T02:51:18.690Z,89.50
2023-03-13T02:53:48.526Z,89.55
2023-03-13T02:56:20.306Z,90.13
2023-03-13T02:58:50.360Z,90.54
2023-03-13T03:01:21.642Z,90.74
2023-03-13T03:03:48.981Z,90.23
2023-03-13T03:06:16.082Z,90.38
2023-03-13T03:08:44.024Z,89.38
2023-03-13T03:11:12.413Z,89.66
2023-03-13T03:13:40.408Z,89.83
2023-03-13T03:16:09.809Z,90.05
2023-03-13T03:18:38.564Z,90.30
2023-03-13T03:21:06.718Z,90.85
2023-03-13T03:23:38.086Z,90.90
2023-03-13T03:26:06.476Z,91.19
2023-03-13T03:28:33.869Z,91.07
2023-03-13T03:31:11.896Z,91.13
2023-03-13T03:33:39.916Z,90.68
2023-03-13T03:36:13.930Z,90.87
2023-03-13T03:38:41.317Z,91.15
2023-03-13T03:41:11.217Z,91.31
2023-03-13T03:43:38.297Z,90.70
2023-03-13T03:46:08.047Z,90.72
2023-03-13T03:48:35.491Z,91.13
2023-03-13T03:51:05.929Z,91.58
2023-03-13T03:53:35.759Z,91.63
2023-03-13T03:56:02.868Z,91.99
2023-03-13T03:58:30.165Z,92.16
2023-03-13T04:01:12.875Z,92.14
2023-03-13T04:03:40.617Z,92.10
2023-03-13T04:06:07.686Z,92.25
2023-03-13T04:08:34.603Z,92.08
2023-03-13T04:11:02.723Z,91.81
2023-03-13T04:13:33.681Z,92.15
2023-03-13T04:16:00.910Z,91.90
2023-03-13T04:18:27.992Z,91.56
2023-03-13T04:21:06.145Z,90.35
2023-03-13T04:23:41.773Z,90.69
2023-03-13T04:26:09.030Z,91.37
2023-03-13T04:28:37.018Z,91.48
2023-03-13T04:31:06.599Z,91.43
2023-03-13T04:33:59.795Z,91.75
2023-03-13T04:36:38.875Z,91.90
2023-03-13T04:39:26.120Z,92.17
2023-03-13T04:42:12.382Z,92.17
2023-03-13T04:44:56.237Z,92.16
2023-03-13T04:47:52.461Z,92.43
2023-03-13T04:50:31.689Z,92.50
2023-03-13T04:53:19.361Z,92.93
2023-03-13T04:56:42.340Z,92.27
2023-03-13T04:59:19.173Z,91.88
2023-03-13T05:02:04.353Z,91.97
2023-03-13T05:04:51.156Z,92.06
2023-03-13T05:07:48.681Z,92.07
2023-03-13T05:10:35.022Z,91.81
2023-03-13T05:13:25.389Z,91.33
2023-03-13T05:15:55.309Z,91.09
2023-03-13T05:18:54.792Z,91.04
2023-03-13T05:21:40.031Z,90.25
2023-03-13T05:24:42.155Z,89.71
2023-03-13T05:27:26.810Z,89.83
2023-03-13T05:30:07.458Z,90.11
2023-03-13T05:32:41.840Z,90.22
2023-03-13T05:35:19.696Z,90.22
2023-03-13T05:38:05.129Z,89.71
2023-03-13T05:40:52.361Z,89.12
2023-03-13T05:43:38.176Z,88.10
2023-03-13T05:46:28.209Z,87.67
2023-03-13T05:49:05.706Z,87.36
2023-03-13T05:51:48.883Z,86.70
2023-03-13T05:54:42.149Z,86.12
2023-03-13T05:57:14.682Z,85.12
2023-03-13T06:00:04.424Z,85.03
2023-03-13T06:02:45.149Z,84.27
2023-03-13T06:05:17.199Z,83.79
2023-03-13T06:07:45.292Z,83.67
2023-03-13T06:10:12.656Z,83.55
2023-03-13T06:12:39.975Z,82.62
2023-03-13T06:15:12.124Z,82.40
2023-03-13T06:17:54.664Z,80.94
2023-03-13T06:20:22.507Z,82.50
2023-03-13T06:22:49.488Z,83.08
2023-03-13T06:25:16.471Z,81.71
2023-03-13T06:27:43.648Z,79.56
2023-03-13T06:30:11.204Z,78.47
2023-03-13T06:32:38.474Z,80.11
2023-03-13T06:35:06.146Z,79.27
2023-03-13T06:37:33.827Z,79.42
2023-03-13T06:40:00.744Z,77.80
2023-03-13T06:42:27.671Z,76.91
2023-03-13T06:44:54.847Z,76.92
2023-03-13T06:47:21.914Z,76.34
2023-03-13T06:49:49.204Z,73.41
2023-03-13T06:52:16.250Z,73.57
2023-03-13T06:54:43.115Z,72.36
2023-03-13T06:57:10.037Z,71.43
2023-03-13T06:59:36.935Z,71.99
2023-03-13T07:02:04.704Z,70.15
2023-03-13T07:04:31.489Z,71.43
2023-03-13T07:06:58.489Z,69.36
2023-03-13T07:09:25.538Z,69.32
2023-03-13T07:11:55.401Z,69.22
2023-03-13T07:14:22.509Z,69.29
2023-03-13T07:16:49.598Z,69.64
2023-03-13T07:19:17.520Z,68.31
2023-03-13T07:21:44.539Z,68.28
2023-03-13T07:24:11.556Z,68.04
2023-03-13T07:26:38.906Z,67.91
2023-03-13T07:29:06.176Z,67.21
2023-03-13T07:31:34.153Z,66.89
2023-03-13T07:34:01.674Z,66.02
2023-03-13T07:36:29.945Z,66.02
2023-03-13T07:38:57.105Z,64.35
2023-03-13T07:41:24.015Z,64.00
2023-03-13T07:43:50.914Z,63.88
2023-03-13T07:46:20.084Z,63.84
2023-03-13T07:48:47.808Z,63.92
2023-03-13T07:51:25.276Z,61.14
2023-03-13T07:53:57.407Z,65.77
2023-03-13T07:56:24.666Z,65.46
2023-03-13T07:58:52.203Z,64.42
2023-03-13T08:01:20.379Z,63.35
2023-03-13T08:03:50.752Z,63.01
2023-03-13T08:06:25.049Z,63.19
2023-03-13T08:08:53.932Z,63.60
2023-03-13T08:11:22.536Z,59.35
2023-03-13T08:13:52.457Z,61.65
2023-03-13T08:16:22.361Z,59.48
2023-03-13T08:18:52.142Z,58.19
2023-03-13T08:21:22.080Z,59.68
2023-03-13T08:23:52.397Z,58.63
2023-03-13T08:26:21.126Z,59.04
2023-03-13T08:28:52.029Z,60.65
2023-03-13T08:31:22.833Z,57.73
2023-03-13T08:33:50.519Z,59.09
2023-03-13T08:36:20.841Z,58.34
2023-03-13T08:38:48.194Z,57.44
2023-03-13T08:41:20.759Z,56.89
2023-03-13T08:43:48.624Z,58.21
2023-03-13T08:46:17.823Z,57.68
2023-03-13T08:48:50.853Z,56.96
2023-03-13T08:51:19.368Z,54.25
2023-03-13T08:53:46.893Z,59.05
2023-03-13T08:56:16.740Z,51.82
2023-03-13T08:58:43.932Z,54.20
2023-03-13T09:01:15.074Z,53.99
2023-03-13T09:03:42.561Z,50.84
2023-03-13T09:06:11.274Z,48.64
2023-03-13T09:08:39.707Z,48.43
2023-03-13T09:11:15.839Z,49.79
2023-03-13T09:13:48.069Z,50.19
2023-03-13T09:16:18.152Z,47.47
2023-03-13T09:18:45.863Z,43.78
2023-03-13T09:21:15.879Z,42.98
2023-03-13T09:23:43.242Z,44.22
2023-03-13T09:26:10.675Z,38.91
2023-03-13T09:28:39.483Z,35.99
2023-03-13T09:31:18.097Z,43.33
2023-03-13T09:33:46.585Z,40.74
2023-03-13T09:36:13.505Z,42.83
2023-03-13T09:38:41.422Z,41.99
2023-03-13T09:41:44.131Z,40.16
2023-03-13T09:44:27.061Z,42.18
2023-03-13T09:47:08.410Z,41.53
2023-03-13T09:49:42.445Z,43.52
2023-03-13T09:52:18.322Z,41.79
2023-03-13T09:54:52.490Z,42.25
2023-03-13T09:57:31.721Z,40.99
2023-03-13T10:00:20.216Z,44.58
2023-03-13T10:02:56.720Z,40.53
2023-03-13T10:05:26.600Z,38.58
2023-03-13T10:08:17.769Z,40.71
2023-03-13T10:10:53.062Z,40.54
2023-03-13T10:13:34.094Z,40.09
2023-03-13T10:16:18.211Z,41.96
2023-03-13T10:18:52.157Z,40.14
2023-03-13T10:21:22.241Z,42.23
2023-03-13T10:24:23.461Z,40.39
2023-03-13T10:26:50.847Z,39.85
2023-03-13T10:29:29.495Z,40.48
2023-03-13T10:32:05.922Z,39.40
2023-03-13T10:34:53.871Z,40.19
2023-03-13T10:37:29.732Z,38.12
2023-03-13T10:40:25.201Z,39.53
2023-03-13T10:42:54.213Z,40.14
2023-03-13T10:45:25.096Z,39.34
2023-03-13T10:47:57.481Z,39.79
2023-03-13T10:50:27.485Z,42.43
2023-03-13T10:52:57.885Z,39.09
2023-03-13T10:55:26.244Z,38.02
2023-03-13T10:58:00.500Z,39.72
2023-03-13T11:00:41.244Z,38.84
2023-03-13T11:03:22.294Z,40.37
2023-03-13T11:06:01.319Z,42.09
2023-03-13T11:08:35.287Z,39.81
2023-03-13T11:11:05.259Z,44.72
2023-03-13T11:13:43.054Z,39.62
2023-03-13T11:16:46.799Z,40.91
2023-03-13T11:19:13.868Z,41.29
2023-03-13T11:21:49.914Z,40.97
2023-03-13T11:24:27.665Z,40.98
2023-03-13T11:27:05.394Z,40.66
2023-03-13T11:29:45.733Z,39.62
2023-03-13T11:32:23.083Z,40.00
2023-03-13T11:35:01.689Z,40.25
2023-03-13T11:37:33.268Z,39.22
2023-03-13T11:40:21.385Z,39.11
2023-03-13T11:43:24.979Z,38.33
2023-03-13T11:46:02.448Z,39.11
2023-03-13T11:48:35.274Z,37.08
2023-03-13T11:51:14.493Z,38.52
2023-03-13T11:53:43.864Z,38.53
2023-03-13T11:56:36.772Z,38.28
2023-03-13T11:59:25.359Z,38.33
2023-03-13T12:02:10.739Z,38.30
2023-03-13T12:04:43.907Z,38.93
2023-03-13T12:07:39.529Z,37.67
2023-03-13T12:10:25.201Z,37.03
2023-03-13T12:13:02.741Z,37.08
2023-03-13T12:15:45.658Z,37.23
2023-03-13T12:18:15.694Z,37.29
2023-03-13T12:21:14.694Z,36.48
2023-03-13T12:23:55.371Z,37.61
2023-03-13T12:26:48.927Z,37.94
2023-03-13T12:29:46.756Z,39.87
2023-03-13T12:32:18.515Z,36.83
2023-03-13T12:35:26.288Z,37.50
2023-03-13T12:38:02.234Z,35.46
2023-03-13T12:40:47.923Z,34.71
2023-03-13T12:43:20.295Z,36.17
2023-03-13T12:45:59.559Z,35.25
2023-03-13T12:48:38.577Z,35.45
2023-03-13T12:51:24.042Z,34.18
2023-03-13T12:54:12.575Z,33.76
2023-03-13T12:56:58.159Z,34.93
2023-03-13T12:59:40.170Z,34.57
2023-03-13T13:02:27.163Z,35.02
2023-03-13T13:04:56.321Z,36.95
2023-03-13T13:07:27.634Z,35.00
2023-03-13T13:10:09.754Z,36.19
2023-03-13T13:12:40.990Z,33.31
2023-03-13T13:15:28.020Z,36.84
2023-03-13T13:18:13.793Z,35.48
2023-03-13T13:20:49.646Z,33.15
2023-03-13T13:23:27.985Z,33.50
2023-03-13T13:25:56.765Z,33.35
2023-03-13T13:28:28.718Z,33.11
2023-03-13T13:30:57.116Z,34.08
2023-03-13T13:33:31.031Z,32.97
2023-03-13T13:36:10.111Z,33.63
2023-03-13T13:38:42.288Z,35.56
2023-03-13T13:41:09.304Z,32.96
2023-03-13T13:43:40.641Z,32.62
2023-03-13T13:46:23.015Z,34.07
2023-03-13T13:49:05.231Z,33.44
2023-03-13T13:51:39.148Z,32.89
2023-03-13T13:54:53.442Z,32.94
2023-03-13T13:57:27.841Z,33.46
2023-03-13T13:59:57.602Z,32.42
2023-03-13T14:02:47.544Z,33.39
2023-03-13T14:05:23.504Z,33.51
2023-03-13T14:08:15.663Z,34.55
2023-03-13T14:10:54.372Z,31.71
2023-03-13T14:13:22.707Z,32.89
2023-03-13T14:15:54.385Z,31.39
2023-03-13T14:18:28.658Z,32.33
2023-03-13T14:21:03.159Z,32.00
2023-03-13T14:23:45.139Z,32.46
2023-03-13T14:26:18.177Z,30.90
2023-03-13T14:28:59.596Z,33.48
2023-03-13T14:31:28.277Z,33.56
2023-03-13T14:33:57.519Z,32.42
2023-03-13T14:36:25.150Z,32.01
2023-03-13T14:39:00.233Z,31.56
2023-03-13T14:41:36.501Z,31.32
2023-03-13T14:44:17.156Z,31.22
2023-03-13T14:46:44.979Z,31.98
2023-03-13T14:49:25.518Z,32.39
2023-03-13T14:52:03.478Z,31.62
2023-03-13T14:54:51.664Z,35.19
2023-03-13T14:57:23.308Z,32.49
2023-03-13T14:59:51.816Z,34.36
2023-03-13T15:02:21.937Z,33.28
2023-03-13T15:04:51.161Z,32.50
2023-03-13T15:07:18.728Z,32.71
2023-03-13T15:09:47.300Z,32.72
2023-03-13T15:12:17.177Z,31.74
2023-03-13T15:14:46.842Z,31.01
2023-03-13T15:17:27.813Z,31.05
2023-03-13T15:19:57.495Z,30.89
2023-03-13T15:22:31.301Z,30.83
2023-03-13T15:25:07.641Z,30.94
2023-03-13T15:27:35.684Z,30.97
2023-03-13T15:30:02.759Z,30.99
2023-03-13T15:32:33.816Z,30.62
2023-03-13T15:35:02.170Z,31.37
2023-03-13T15:37:30.682Z,30.97
2023-03-13T15:39:58.182Z,31.31
2023-03-13T15:42:25.599Z,31.82
2023-03-13T15:44:52.746Z,31.66
2023-03-13T15:47:21.750Z,31.96
2023-03-13T15:49:48.817Z,32.29
2023-03-13T15:52:19.453Z,32.57
2023-03-13T15:54:47.078Z,32.94
2023-03-13T15:57:17.334Z,33.10
2023-03-13T15:59:44.584Z,33.63
2023-03-13T16:02:17.328Z,33.60
2023-03-13T16:04:45.352Z,33.86
2023-03-13T16:07:14.267Z,34.05
2023-03-13T16:09:42.231Z,34.27
2023-03-13T16:12:09.894Z,34.64
2023-03-13T16:14:37.239Z,34.98
2023-03-13T16:17:12.076Z,35.24
2023-03-13T16:19:39.128Z,35.08
2023-03-13T16:22:05.933Z,35.54
2023-03-13T16:24:32.848Z,35.54
2023-03-13T16:26:59.813Z,35.76
2023-03-13T16:29:26.807Z,35.81
2023-03-13T16:31:53.682Z,35.90
2023-03-13T16:34:20.634Z,36.06
2023-03-13T16:36:47.483Z,36.02
2023-03-13T16:39:16.667Z,35.97
2023-03-13T16:41:43.645Z,36.25
2023-03-13T16:44:10.851Z,36.47
2023-03-13T16:46:39.986Z,36.44
2023-03-13T16:49:11.597Z,36.73
2023-03-13T16:51:40.205Z,36.60
2023-03-13T16:54:07.239Z,36.56
2023-03-13T16:56:36.656Z,36.62
2023-03-13T16:59:08.731Z,36.67
2023-03-13T17:01:36.094Z,36.91
2023-03-13T17:04:03.224Z,37.14
2023-03-13T17:06:44.830Z,38.49
2023-03-13T17:09:15.324Z,39.13
2023-03-13T17:11:42.501Z,39.81
2023-03-13T17:14:10.006Z,40.28
2023-03-13T17:16:42.568Z,40.46
2023-03-13T17:19:16.990Z,40.86
2023-03-13T17:21:44.040Z,41.30
2023-03-13T17:24:11.008Z,41.67
2023-03-13T17:26:39.385Z,42.94
2023-03-13T17:29:08.177Z,43.57
2023-03-13T17:31:38.573Z,44.47
2023-03-13T17:34:06.668Z,45.11
2023-03-13T17:36:34.948Z,46.28
2023-03-13T17:39:04.616Z,46.48
2023-03-13T17:41:33.664Z,47.29
2023-03-13T17:44:00.846Z,47.68
2023-03-13T17:46:35.060Z,47.89
2023-03-13T17:49:03.358Z,48.87
2023-03-13T17:51:32.384Z,49.39
2023-03-13T17:54:00.227Z,49.34
2023-03-13T17:56:30.263Z,49.88
2023-03-13T17:58:59.640Z,50.23
2023-03-13T18:01:29.050Z,50.95
2023-03-13T18:03:56.697Z,51.09
2023-03-13T18:06:27.753Z,52.15
2023-03-13T18:08:56.230Z,53.61
2023-03-13T18:11:24.963Z,53.21
2023-03-13T18:13:52.492Z,53.71
2023-03-13T18:16:37.499Z,54.43
2023-03-13T18:19:06.400Z,54.75
2023-03-13T18:21:34.108Z,55.35
2023-03-13T18:24:00.945Z,56.24
2023-03-13T18:26:37.030Z,56.61
2023-03-13T18:29:12.388Z,56.59
2023-03-13T18:31:41.892Z,57.24
2023-03-13T18:34:09.860Z,57.89
2023-03-13T18:36:37.570Z,57.75
2023-03-13T18:39:08.798Z,57.92
2023-03-13T18:41:36.090Z,58.76
2023-03-13T18:44:02.949Z,59.26
2023-03-13T18:46:31.895Z,59.34
2023-03-13T18:49:01.020Z,59.66
2023-03-13T18:51:28.728Z,59.65
2023-03-13T18:53:56.822Z,59.61
2023-03-13T18:56:26.893Z,59.94
2023-03-13T18:58:55.274Z,60.59
2023-03-13T19:01:24.713Z,60.75
2023-03-13T19:03:52.007Z,60.67
2023-03-13T19:06:28.997Z,61.36
2023-03-13T19:08:59.234Z,61.67
2023-03-13T19:11:29.196Z,61.31
2023-03-13T19:13:56.857Z,61.78
2023-03-13T19:16:26.803Z,61.77
2023-03-13T19:18:53.917Z,62.06
2023-03-13T19:21:25.149Z,62.16
2023-03-13T19:23:52.847Z,61.96
2023-03-13T19:26:31.923Z,61.54
2023-03-13T19:28:59.867Z,63.09
2023-03-13T19:31:27.378Z,63.58
2023-03-13T19:33:54.598Z,63.05
2023-03-13T19:36:24.209Z,63.65
2023-03-13T19:38:51.562Z,63.81
2023-03-13T19:41:18.548Z,64.03
2023-03-13T19:43:47.862Z,63.79
2023-03-13T19:46:22.200Z,64.14
2023-03-13T19:48:51.710Z,63.94
2023-03-13T19:51:18.667Z,64.09
2023-03-13T19:53:46.468Z,64.16
2023-03-13T19:56:24.779Z,65.03
2023-03-13T19:58:58.465Z,65.08
2023-03-13T20:01:25.590Z,65.54
2023-03-13T20:03:52.784Z,65.85
2023-03-13T20:06:30.379Z,66.17
2023-03-13T20:08:59.739Z,66.45
2023-03-13T20:11:27.875Z,66.36
2023-03-13T20:13:55.618Z,65.70
2023-03-13T20:16:25.694Z,66.13
2023-03-13T20:18:52.935Z,66.28
2023-03-13T20:21:20.040Z,66.04
2023-03-13T20:23:49.392Z,65.71
2023-03-13T20:26:18.891Z,66.08
2023-03-13T20:28:48.219Z,66.03
2023-03-13T20:31:17.490Z,66.06
2023-03-13T20:33:44.387Z,66.30
2023-03-13T20:36:17.118Z,66.95
2023-03-13T20:38:44.131Z,67.35
2023-03-13T20:41:11.968Z,67.32
2023-03-13T20:43:39.741Z,67.46
2023-03-13T20:46:09.939Z,68.36
2023-03-13T20:48:39.558Z,68.02
2023-03-13T20:51:08.567Z,68.48
2023-03-13T20:53:41.101Z,68.51
2023-03-13T20:56:09.652Z,68.76
2023-03-13T20:58:37.408Z,68.99
2023-03-13T21:01:06.069Z,69.07
2023-03-13T21:03:36.016Z,69.08
2023-03-13T21:06:09.620Z,69.50
2023-03-13T21:08:38.664Z,70.50
2023-03-13T21:11:13.270Z,71.22
2023-03-13T21:13:40.328Z,71.55
2023-03-13T21:16:07.721Z,71.46
2023-03-13T21:18:34.759Z,72.10
2023-03-13T21:21:07.162Z,73.21
2023-03-13T21:23:34.013Z,73.38
2023-03-13T21:26:00.963Z,73.34
2023-03-13T21:28:28.667Z,73.38
2023-03-13T21:30:56.211Z,72.65
2023-03-13T21:33:23.887Z,72.94
2023-03-13T21:35:51.187Z,72.96
2023-03-13T21:38:18.185Z,73.12
2023-03-13T21:40:45.527Z,73.38
2023-03-13T21:43:12.442Z,73.73
2023-03-13T21:45:39.383Z,73.74
2023-03-13T21:48:06.364Z,74.04
2023-03-13T21:50:33.237Z,74.54
2023-03-13T21:53:00.155Z,74.47
2023-03-13T21:55:27.236Z,74.38
2023-03-13T21:57:54.048Z,75.13
2023-03-13T22:00:21.329Z,75.75
2023-03-13T22:02:48.272Z,76.31
2023-03-13T22:05:15.029Z,76.78
2023-03-13T22:07:42.085Z,77.06
2023-03-13T22:10:09.748Z,77.27
2023-03-13T22:12:37.546Z,78.10
2023-03-13T22:15:04.842Z,78.61
2023-03-13T22:17:31.852Z,78.75
2023-03-13T22:19:58.717Z,78.88
2023-03-13T22:22:25.836Z,78.83
2023-03-13T22:24:54.259Z,78.74
2023-03-13T22:27:23.359Z,78.45
2023-03-13T22:29:50.488Z,78.64
2023-03-13T22:32:17.437Z,78.84
2023-03-13T22:34:47.194Z,79.13
2023-03-13T22:37:14.596Z,79.26
2023-03-13T22:39:41.443Z,80.58
2023-03-13T22:42:08.358Z,81.40
2023-03-13T22:44:35.259Z,81.37
2023-03-13T22:47:02.182Z,81.39
2023-03-13T22:49:29.287Z,81.45
2023-03-13T22:51:56.175Z,81.79
2023-03-13T22:54:23.232Z,81.47
2023-03-13T22:56:49.997Z,81.96
2023-03-13T22:59:17.016Z,82.71
2023-03-13T23:01:43.768Z,82.81
2023-03-13T23:04:10.867Z,83.17
2023-03-13T23:06:38.037Z,83.11
2023-03-13T23:09:05.508Z,82.98
2023-03-13T23:11:32.609Z,83.12
2023-03-13T23:14:00.046Z,83.37
2023-03-13T23:16:26.971Z,82.83
2023-03-13T23:18:54.024Z,83.19
2023-03-13T23:21:20.901Z,83.18
2023-03-13T23:23:48.921Z,82.82
2023-03-13T23:26:16.502Z,82.85
2023-03-13T23:28:43.340Z,82.37
2023-03-13T23:31:12.277Z,82.86
2023-03-13T23:33:39.701Z,83.77
2023-03-13T23:36:12.616Z,83.98
2023-03-13T23:38:39.671Z,84.27
2023-03-13T23:41:08.273Z,84.37
2023-03-13T23:43:35.644Z,84.57
2023-03-13T23:46:02.572Z,83.72
2023-03-13T23:48:30.432Z,83.81
2023-03-13T23:50:57.482Z,83.55
2023-03-13T23:53:24.703Z,83.53
2023-03-13T23:55:58.724Z,83.31
2023-03-13T23:58:25.748Z,83.73
